Time;durP1;ratioP1;P1;durP2;ratioP2;P2;SDS_P1;SDS_P2;PMS_P1;PMS_P2;Temp;Humidity;BMP_temperature;BMP_pressure;BME280_temperature;BME280_humidity;BME280_pressure;Samples;Min_cycle;Max_cycle;Signal;HPM_P1;HPM_P2
2022/06/16 00:00:58;;;;;;;3.88;0.73;;;24.00;62.90;;;;;;5054964;28;20049;-75
2022/06/16 00:03:23;;;;;;;3.53;1.00;;;24.00;63.00;;;;;;5054822;28;20479;-74
2022/06/16 00:05:49;;;;;;;4.88;0.82;;;24.00;63.20;;;;;;5054844;28;20021;-74
2022/06/16 00:08:16;;;;;;;2.90;1.00;;;24.00;64.20;;;;;;5054638;28;20033;-74
2022/06/16 00:11:27;;;;;;;1.23;0.93;;;24.00;63.10;;;;;;5037164;28;20048;-75
2022/06/16 00:13:32;;;;;;;4.30;1.10;;;24.00;63.20;;;;;;5057503;28;20120;-75
2022/06/16 00:15:58;;;;;;;3.13;1.00;;;24.00;63.10;;;;;;5037504;28;20109;-75
2022/06/16 00:18:24;;;;;;;4.22;0.80;;;24.00;63.10;;;;;;5054407;28;20096;-75
2022/06/16 00:20:50;;;;;;;1.80;1.00;;;24.00;63.10;;;;;;5053439;28;20112;-75
2022/06/16 00:23:16;;;;;;;1.13;0.95;;;24.00;63.10;;;;;;5052942;28;20032;-74
2022/06/16 00:25:41;;;;;;;1.42;0.93;;;24.00;63.20;;;;;;5054513;28;20024;-74
2022/06/16 00:28:07;;;;;;;2.53;0.73;;;24.00;63.20;;;;;;5054269;28;20066;-74
2022/06/16 00:30:33;;;;;;;2.45;0.80;;;24.00;63.20;;;;;;5054253;28;20034;-74
2022/06/16 00:32:59;;;;;;;2.15;1.10;;;24.00;63.20;;;;;;5054278;28;20025;-75
2022/06/16 00:35:24;;;;;;;0.88;0.77;;;24.00;63.20;;;;;;5053018;28;20021;-75
2022/06/16 00:37:50;;;;;;;3.60;0.77;;;24.00;63.40;;;;;;5052808;28;20025;-75
2022/06/16 00:40:16;;;;;;;2.33;0.80;;;23.90;63.60;;;;;;5054046;28;20032;-75
2022/06/16 00:42:43;;;;;;;2.47;0.80;;;24.00;63.50;;;;;;5054134;28;20033;-75
2022/06/16 00:45:43;;;;;;;2.47;0.68;;;24.00;63.50;;;;;;5052538;28;20052;-75
2022/06/16 00:48:10;;;;;;;1.00;0.73;;;23.90;63.50;;;;;;5053383;28;20134;-75
2022/06/16 00:50:36;;;;;;;2.08;1.00;;;23.90;63.60;;;;;;5032733;28;20112;-75
2022/06/16 00:53:01;;;;;;;1.17;0.82;;;23.90;63.50;;;;;;5033675;28;20059;-75
2022/06/16 00:55:27;;;;;;;1.25;0.90;;;23.90;63.60;;;;;;5016305;28;20029;-74
2022/06/16 00:57:53;;;;;;;2.42;1.00;;;23.90;63.50;;;;;;5048175;28;20028;-75
2022/06/16 01:03:04;;;;;;;1.95;0.77;;;23.90;63.40;;;;;;5052629;28;20040;-75
2022/06/16 01:05:30;;;;;;;1.10;0.75;;;23.90;63.50;;;;;;5052230;28;20025;-75
2022/06/16 01:07:55;;;;;;;0.93;0.85;;;23.90;63.40;;;;;;5052436;28;20115;-75
2022/06/16 01:10:21;;;;;;;1.75;0.90;;;23.90;63.30;;;;;;5035759;28;20024;-75
2022/06/16 01:16:30;;;;;;;2.75;0.65;;;23.90;63.90;;;;;;5060549;28;20592;-74
2022/06/16 01:19:18;;;;;;;1.83;1.13;;;23.90;63.40;;;;;;5049311;28;20140;-74
2022/06/16 01:21:46;;;;;;;2.30;0.88;;;23.90;63.30;;;;;;5071027;28;20020;-74
2022/06/16 01:24:32;;;;;;;3.40;1.05;;;23.90;63.40;;;;;;5054665;28;20029;-74
2022/06/16 01:27:16;;;;;;;2.13;0.88;;;23.90;63.50;;;;;;5070992;28;20029;-74
2022/06/16 01:30:06;;;;;;;1.77;0.95;;;23.90;63.40;;;;;;5070956;28;20036;-74
2022/06/16 01:32:40;;;;;;;2.40;0.90;;;23.90;63.30;;;;;;5070950;28;20392;-74
2022/06/16 01:35:22;;;;;;;1.27;0.70;;;23.90;63.40;;;;;;5053906;28;20024;-74
2022/06/16 01:37:55;;;;;;;0.68;0.65;;;23.80;63.20;;;;;;5055544;28;20587;-74
2022/06/16 01:40:24;;;;;;;2.97;1.20;;;23.80;63.30;;;;;;5054181;28;20055;-75
2022/06/16 01:43:00;;;;;;;1.63;0.88;;;23.80;63.40;;;;;;5054438;28;20562;-74
2022/06/16 01:45:33;;;;;;;2.78;1.00;;;23.80;63.50;;;;;;5037987;28;20395;-75
2022/06/16 01:47:59;;;;;;;2.05;0.75;;;23.90;63.60;;;;;;5038059;28;20046;-75
2022/06/16 01:50:31;;;;;;;2.80;0.80;;;23.80;63.50;;;;;;5033809;28;20108;-75
2022/06/16 01:53:16;;;;;;;2.00;0.90;;;23.80;63.50;;;;;;5031452;28;20502;-75
2022/06/16 01:56:09;;;;;;;2.20;0.75;;;23.80;63.50;;;;;;5047701;28;20028;-75
2022/06/16 01:58:35;;;;;;;1.10;0.73;;;23.80;63.50;;;;;;5052412;28;20061;-74
2022/06/16 02:01:03;;;;;;;2.40;1.00;;;23.80;63.40;;;;;;5035274;28;20589;-75
2022/06/16 02:03:35;;;;;;;3.88;1.20;;;23.80;63.50;;;;;;5051225;28;20021;-75
2022/06/16 02:06:12;;;;;;;0.98;0.65;;;23.80;63.50;;;;;;5035459;28;20036;-75
2022/06/16 02:08:46;;;;;;;1.17;0.82;;;23.70;63.40;;;;;;5035028;28;20029;-75
2022/06/16 02:11:17;;;;;;;3.10;0.80;;;23.70;63.50;;;;;;5035661;28;20112;-74
2022/06/16 02:13:48;;;;;;;1.23;1.08;;;23.70;63.30;;;;;;5051432;28;20151;-74
2022/06/16 02:16:18;;;;;;;0.82;0.70;;;23.80;63.50;;;;;;5035235;28;20021;-75
2022/06/16 02:18:44;;;;;;;3.83;1.10;;;23.80;63.50;;;;;;5034775;28;20040;-75
2022/06/16 02:21:29;;;;;;;1.83;0.98;;;23.70;63.60;;;;;;5034692;28;20438;-75
2022/06/16 02:23:55;;;;;;;2.70;1.20;;;23.80;63.60;;;;;;5035564;28;20036;-75
2022/06/16 02:26:21;;;;;;;1.73;1.00;;;23.80;63.60;;;;;;5034931;28;20029;-75
2022/06/16 02:28:55;;;;;;;2.47;0.93;;;23.80;63.70;;;;;;5034698;28;20025;-75
2022/06/16 02:31:32;;;;;;;2.13;0.70;;;23.80;63.60;;;;;;5051261;28;20028;-75
2022/06/16 02:34:30;;;;;;;1.73;0.93;;;23.80;63.60;;;;;;5052089;28;20032;-75
2022/06/16 02:37:11;;;;;;;1.50;1.00;;;23.80;63.60;;;;;;5050994;28;20025;-75
2022/06/16 02:39:46;;;;;;;3.63;0.80;;;23.80;63.70;;;;;;5052196;28;20501;-75
2022/06/16 02:42:18;;;;;;;2.45;0.85;;;23.70;63.50;;;;;;5051042;28;20113;-75
2022/06/16 02:45:00;;;;;;;2.22;0.85;;;23.70;63.60;;;;;;5034601;28;20052;-74
2022/06/16 02:47:45;;;;;;;0.60;0.60;;;23.70;63.70;;;;;;5050867;28;20025;-75
2022/06/16 02:50:16;;;;;;;1.13;0.65;;;23.70;63.60;;;;;;5034641;28;20076;-75
2022/06/16 02:52:46;;;;;;;1.27;0.68;;;23.70;63.70;;;;;;5031002;28;20045;-74
2022/06/16 02:55:15;;;;;;;2.03;0.88;;;23.70;63.60;;;;;;5031109;28;20105;-75
2022/06/16 02:57:45;;;;;;;2.83;0.80;;;23.70;63.60;;;;;;5044428;28;20082;-75
2022/06/16 03:00:16;;;;;;;1.02;0.88;;;23.70;63.60;;;;;;5034690;28;20017;-74
2022/06/16 03:02:42;;;;;;;2.72;1.20;;;23.70;63.60;;;;;;5053949;28;20083;-75
2022/06/16 03:05:08;;;;;;;2.05;0.95;;;23.70;63.70;;;;;;5054689;28;20484;-75
2022/06/16 03:07:35;;;;;;;2.35;0.90;;;23.70;63.60;;;;;;5038140;28;20036;-75
2022/06/16 03:10:04;;;;;;;0.80;0.80;;;23.70;63.60;;;;;;5038288;28;20020;-74
2022/06/16 03:12:30;;;;;;;3.30;0.98;;;23.60;63.60;;;;;;5038510;28;20036;-74
2022/06/16 03:14:55;;;;;;;0.70;0.70;;;23.60;63.60;;;;;;5055920;28;20017;-74
2022/06/16 03:17:21;;;;;;;1.35;0.95;;;23.60;63.70;;;;;;5054551;28;20032;-75
2022/06/16 03:19:46;;;;;;;1.55;0.93;;;23.70;63.70;;;;;;5055708;28;20079;-74
2022/06/16 03:22:12;;;;;;;1.10;0.90;;;23.70;63.70;;;;;;5055722;28;20514;-74
2022/06/16 03:24:38;;;;;;;1.05;0.68;;;23.60;63.70;;;;;;5055520;28;20032;-75
2022/06/16 03:27:04;;;;;;;0.93;0.65;;;23.60;63.70;;;;;;5054413;28;20391;-74
2022/06/16 03:29:30;;;;;;;1.70;0.82;;;23.60;63.80;;;;;;5055445;28;20028;-75
2022/06/16 03:31:56;;;;;;;1.10;0.80;;;23.60;63.80;;;;;;5037631;28;20029;-74
2022/06/16 03:34:22;;;;;;;2.08;0.80;;;23.60;63.80;;;;;;5055406;28;20020;-75
2022/06/16 03:36:48;;;;;;;1.10;0.80;;;23.60;63.80;;;;;;5054264;28;20028;-75
2022/06/16 03:39:13;;;;;;;0.98;0.80;;;23.60;64.00;;;;;;5054191;28;20029;-74
2022/06/16 03:41:39;;;;;;;1.67;0.90;;;23.60;64.00;;;;;;5055155;28;20467;-74
2022/06/16 03:44:05;;;;;;;1.55;0.60;;;23.60;64.00;;;;;;5055183;28;20029;-75
2022/06/16 03:46:30;;;;;;;1.00;0.80;;;23.60;64.20;;;;;;5054945;28;20044;-75
2022/06/16 03:48:56;;;;;;;2.03;0.70;;;23.60;64.20;;;;;;5046565;28;20096;-74
2022/06/16 03:51:21;;;;;;;1.35;0.80;;;23.60;64.10;;;;;;5034134;28;20060;-74
2022/06/16 03:53:47;;;;;;;2.35;0.85;;;23.60;64.10;;;;;;5034120;28;20537;-75
2022/06/16 03:56:13;;;;;;;1.40;0.77;;;23.60;64.10;;;;;;5034280;28;20071;-74
2022/06/16 03:58:39;;;;;;;1.45;0.77;;;23.60;64.10;;;;;;5054910;28;20025;-75
2022/06/16 04:01:05;;;;;;;1.08;0.77;;;23.60;64.10;;;;;;5053637;28;20479;-75
2022/06/16 04:06:14;;;;;;;2.63;1.40;;;23.60;64.40;;;;;;5038769;28;20043;-74
2022/06/16 04:08:40;;;;;;;2.08;1.40;;;23.50;62.30;;;;;;5032951;28;20025;-74
2022/06/16 04:13:51;;;;;;;1.45;1.35;;;23.40;60.40;;;;;;5032519;28;20112;-73
2022/06/16 04:16:17;;;;;;;2.05;1.65;;;23.30;60.20;;;;;;5016484;28;20029;-73
2022/06/16 04:18:43;;;;;;;4.55;1.40;;;23.30;60.10;;;;;;5034041;28;20084;-74
2022/06/16 04:21:12;;;;;;;1.73;1.25;;;23.20;59.90;;;;;;5034963;28;20415;-74
2022/06/16 04:23:38;;;;;;;1.83;1.40;;;23.30;60.00;;;;;;5044321;28;20099;-74
2022/06/16 04:26:04;;;;;;;1.40;1.30;;;23.30;59.90;;;;;;5032968;28;20025;-74
2022/06/16 04:28:29;;;;;;;1.30;1.20;;;23.20;59.80;;;;;;5033454;28;20087;-74
2022/06/16 04:30:55;;;;;;;2.13;1.70;;;23.20;59.80;;;;;;5033806;28;20068;-74
2022/06/16 04:33:21;;;;;;;2.47;1.38;;;23.20;59.60;;;;;;5033904;28;20395;-74
2022/06/16 04:35:46;;;;;;;1.38;1.27;;;23.20;59.60;;;;;;5032499;28;20492;-74
2022/06/16 04:38:12;;;;;;;1.30;1.20;;;23.20;59.50;;;;;;5032551;28;20510;-74
2022/06/16 04:40:38;;;;;;;1.95;1.50;;;23.10;59.50;;;;;;5033593;28;20032;-74
2022/06/16 04:43:03;;;;;;;2.42;1.50;;;23.10;59.50;;;;;;5033481;28;20025;-74
2022/06/16 04:45:29;;;;;;;1.88;1.70;;;23.10;59.50;;;;;;5033546;28;20462;-74
2022/06/16 04:47:55;;;;;;;4.10;1.48;;;23.10;59.40;;;;;;5033571;28;20137;-74
2022/06/16 04:50:20;;;;;;;2.50;1.52;;;23.10;59.40;;;;;;5031989;28;20033;-74
2022/06/16 04:52:46;;;;;;;1.40;1.30;;;23.10;59.30;;;;;;5032260;28;20026;-74
2022/06/16 04:55:12;;;;;;;2.03;1.25;;;23.10;59.30;;;;;;5032275;28;20051;-74
2022/06/16 04:57:38;;;;;;;1.65;1.50;;;23.10;59.40;;;;;;5043880;28;20025;-74
2022/06/16 05:00:04;;;;;;;1.75;1.40;;;23.10;59.30;;;;;;5053389;28;20031;-74
2022/06/16 05:02:30;;;;;;;15.95;3.10;;;23.00;60.30;;;;;;5051939;28;20025;-74
2022/06/16 05:04:55;;;;;;;9.15;2.20;;;23.00;59.70;;;;;;5051135;28;20032;-74
2022/06/16 05:07:21;;;;;;;6.00;1.92;;;23.10;59.90;;;;;;5052165;28;20407;-74
2022/06/16 05:09:47;;;;;;;5.45;2.00;;;23.00;59.90;;;;;;5053651;28;20071;-74
2022/06/16 05:12:12;;;;;;;5.45;2.42;;;23.00;60.00;;;;;;5053469;28;20488;-74
2022/06/16 05:14:38;;;;;;;8.30;2.40;;;23.00;60.00;;;;;;5053526;28;20022;-74
2022/06/16 05:17:05;;;;;;;10.85;2.17;;;23.00;60.00;;;;;;5048560;28;20018;-74
2022/06/16 05:19:31;;;;;;;5.22;2.22;;;23.00;60.10;;;;;;5044596;28;20511;-74
2022/06/16 05:21:58;;;;;;;4.65;1.90;;;23.00;60.00;;;;;;5041644;28;20430;-74
2022/06/16 05:24:24;;;;;;;5.82;1.83;;;23.00;60.00;;;;;;5031556;28;20028;-74
2022/06/16 05:26:50;;;;;;;4.75;2.40;;;23.00;60.00;;;;;;5048644;28;20021;-74
2022/06/16 05:29:15;;;;;;;5.10;2.35;;;23.00;59.90;;;;;;5053345;28;20394;-74
2022/06/16 05:31:41;;;;;;;4.43;1.85;;;23.00;60.00;;;;;;5052082;28;20021;-74
2022/06/16 05:34:06;;;;;;;4.57;2.00;;;22.90;60.00;;;;;;5047818;28;20111;-74
2022/06/16 05:36:32;;;;;;;5.30;2.15;;;22.90;60.00;;;;;;5033359;28;20530;-74
2022/06/16 05:38:58;;;;;;;4.05;1.85;;;22.90;59.90;;;;;;5031923;28;20072;-74
2022/06/16 05:41:23;;;;;;;8.60;2.45;;;22.90;60.00;;;;;;5032963;28;20017;-74
2022/06/16 05:43:49;;;;;;;8.50;2.15;;;22.90;60.00;;;;;;5033064;28;20029;-74
2022/06/16 05:46:17;;;;;;;5.15;2.22;;;22.90;60.00;;;;;;5032832;28;20095;-74
2022/06/16 05:48:42;;;;;;;4.50;1.90;;;22.90;60.00;;;;;;5031745;28;20025;-74
2022/06/16 05:51:09;;;;;;;5.15;1.98;;;22.90;60.00;;;;;;5037986;28;20068;-74
2022/06/16 05:53:35;;;;;;;5.97;1.98;;;22.90;60.00;;;;;;5051497;28;20021;-74
2022/06/16 05:56:01;;;;;;;5.63;2.13;;;22.90;60.00;;;;;;5051696;28;20495;-74
2022/06/16 05:58:27;;;;;;;6.05;2.33;;;22.90;60.00;;;;;;5052607;28;20033;-74
2022/06/16 06:00:52;;;;;;;6.43;2.33;;;22.90;60.10;;;;;;5051557;28;20438;-74
2022/06/16 06:03:18;;;;;;;5.18;1.85;;;22.80;60.00;;;;;;5052753;28;20025;-74
2022/06/16 06:05:44;;;;;;;4.68;1.98;;;22.90;60.10;;;;;;5052525;28;20025;-74
2022/06/16 06:16:37;;;;;;;5.03;1.70;;;22.80;60.10;;;;;;5051661;28;20567;-74
2022/06/16 06:19:23;;;;;;;7.38;2.10;;;22.80;60.20;;;;;;5032060;28;20044;-74
2022/06/16 06:21:59;;;;;;;6.85;2.35;;;22.80;60.20;;;;;;5031456;28;20396;-74
2022/06/16 06:24:45;;;;;;;3.10;1.63;;;22.80;60.30;;;;;;5031191;28;20456;-74
2022/06/16 06:27:25;;;;;;;7.60;1.70;;;22.80;60.30;;;;;;5031545;28;20033;-74
2022/06/16 06:29:50;;;;;;;5.32;1.60;;;22.80;60.30;;;;;;5031184;28;20033;-74
2022/06/16 06:32:18;;;;;;;4.90;1.70;;;22.80;60.40;;;;;;5014868;28;20026;-74
2022/06/16 06:34:44;;;;;;;2.92;1.60;;;22.80;60.40;;;;;;5031279;28;20033;-74
2022/06/16 06:37:10;;;;;;;4.55;2.08;;;22.80;60.40;;;;;;5032236;28;20025;-74
2022/06/16 06:39:36;;;;;;;5.28;1.85;;;22.80;60.50;;;;;;5032158;28;20033;-74
2022/06/16 06:42:05;;;;;;;4.25;1.85;;;22.80;60.50;;;;;;5032285;28;20022;-74
2022/06/16 06:44:31;;;;;;;3.75;1.70;;;22.80;61.50;;;;;;5032138;28;20064;-74
2022/06/16 06:46:56;;;;;;;5.47;1.55;;;22.80;60.60;;;;;;5032216;28;20061;-74
2022/06/16 06:49:22;;;;;;;4.78;1.58;;;22.70;60.50;;;;;;5032474;28;20072;-74
2022/06/16 06:51:48;;;;;;;5.68;2.08;;;22.70;60.50;;;;;;5030977;28;20026;-74
2022/06/16 06:54:14;;;;;;;3.55;1.58;;;22.70;60.60;;;;;;5014308;28;20022;-74
2022/06/16 06:56:39;;;;;;;6.43;2.00;;;22.70;60.60;;;;;;5031018;28;20053;-74
2022/06/16 06:59:06;;;;;;;4.00;1.40;;;22.70;60.60;;;;;;5031965;28;20107;-74
2022/06/16 07:01:32;;;;;;;1.95;1.35;;;22.70;60.60;;;;;;5030949;28;20018;-74
2022/06/16 07:03:58;;;;;;;3.72;1.77;;;22.70;60.70;;;;;;5014504;28;20491;-74
2022/06/16 07:06:23;;;;;;;2.50;1.52;;;22.70;60.70;;;;;;5030822;28;20032;-74
2022/06/16 07:08:49;;;;;;;4.65;1.50;;;22.70;60.70;;;;;;5031763;28;20033;-74
2022/06/16 07:11:15;;;;;;;3.45;1.48;;;22.70;60.70;;;;;;5031956;28;20021;-74
2022/06/16 07:13:40;;;;;;;3.63;1.67;;;22.70;60.70;;;;;;5032085;28;20030;-74
2022/06/16 07:16:06;;;;;;;2.35;1.13;;;22.70;60.70;;;;;;5030898;28;20018;-74
2022/06/16 07:18:32;;;;;;;3.80;1.50;;;22.70;60.70;;;;;;5030430;28;20033;-74
2022/06/16 07:20:57;;;;;;;2.83;1.30;;;22.70;60.70;;;;;;5030676;28;20112;-74
2022/06/16 07:23:23;;;;;;;2.85;1.20;;;22.70;60.80;;;;;;5031838;28;20408;-74
2022/06/16 07:25:50;;;;;;;4.78;1.40;;;22.70;60.80;;;;;;5040147;28;20029;-74
2022/06/16 07:28:16;;;;;;;3.72;1.40;;;22.70;60.70;;;;;;5033870;28;20096;-74
2022/06/16 07:30:42;;;;;;;2.97;1.30;;;22.70;60.70;;;;;;5034141;28;20063;-74
2022/06/16 07:33:08;;;;;;;1.70;1.40;;;22.70;60.80;;;;;;5051687;28;20025;-74
2022/06/16 07:35:34;;;;;;;3.60;1.27;;;22.70;60.70;;;;;;5051749;28;20066;-74
2022/06/16 07:38:00;;;;;;;4.90;1.58;;;22.70;60.70;;;;;;5051673;28;20071;-74
2022/06/16 07:40:26;;;;;;;4.10;1.60;;;22.70;60.80;;;;;;5050790;28;20489;-74
2022/06/16 07:42:56;;;;;;;3.20;1.35;;;22.70;60.70;;;;;;5050169;28;20455;-74
2022/06/16 07:45:25;;;;;;;3.15;1.20;;;22.70;60.80;;;;;;5051560;28;20041;-74
2022/06/16 07:47:52;;;;;;;2.30;1.25;;;22.70;60.80;;;;;;5051874;28;20025;-74
2022/06/16 07:50:17;;;;;;;2.88;1.10;;;22.60;60.70;;;;;;5053965;28;20067;-74
2022/06/16 07:52:43;;;;;;;4.43;1.15;;;22.70;60.70;;;;;;5053953;28;20064;-74
2022/06/16 07:55:09;;;;;;;3.33;1.70;;;22.70;60.70;;;;;;5054831;28;20085;-74
2022/06/16 07:57:42;;;;;;;4.20;1.40;;;22.70;60.70;;;;;;5054025;28;20025;-74
2022/06/16 08:00:08;;;;;;;2.67;1.30;;;22.60;60.60;;;;;;5037224;28;20019;-74
2022/06/16 08:02:34;;;;;;;2.47;1.33;;;22.70;60.60;;;;;;5053752;28;20063;-74
2022/06/16 08:05:00;;;;;;;1.65;1.00;;;22.60;60.70;;;;;;5054664;28;20483;-74
2022/06/16 08:07:25;;;;;;;2.75;1.08;;;22.60;60.60;;;;;;5054885;28;20502;-74
2022/06/16 08:09:51;;;;;;;3.60;1.23;;;22.70;60.70;;;;;;5054678;28;20060;-74
2022/06/16 08:12:17;;;;;;;2.85;1.30;;;22.60;60.60;;;;;;5053664;28;20100;-74
2022/06/16 08:14:44;;;;;;;3.35;1.30;;;22.60;60.60;;;;;;5054849;28;20033;-74
2022/06/16 08:17:21;;;;;;;4.03;1.38;;;22.60;60.70;;;;;;5050548;28;20026;-74
2022/06/16 08:19:47;;;;;;;2.92;1.30;;;22.60;60.70;;;;;;5033569;28;20018;-74
2022/06/16 08:22:13;;;;;;;4.50;1.30;;;22.60;60.70;;;;;;5033465;28;20045;-74
2022/06/16 08:24:39;;;;;;;2.67;1.33;;;22.60;60.60;;;;;;5034735;28;20033;-74
2022/06/16 08:27:05;;;;;;;3.65;1.27;;;22.60;60.60;;;;;;5052936;28;20499;-74
2022/06/16 08:29:31;;;;;;;2.03;1.00;;;22.60;60.70;;;;;;5036578;28;20096;-74
2022/06/16 08:31:57;;;;;;;1.25;0.80;;;22.60;60.60;;;;;;5053192;28;20056;-74
2022/06/16 08:34:23;;;;;;;3.08;1.38;;;22.60;60.60;;;;;;5036800;28;20025;-74
2022/06/16 08:36:48;;;;;;;1.85;1.00;;;22.60;60.70;;;;;;5053006;28;20029;-74
2022/06/16 08:39:14;;;;;;;2.03;1.20;;;22.60;60.60;;;;;;5054318;28;20031;-74
2022/06/16 08:41:50;;;;;;;3.20;1.20;;;22.60;60.60;;;;;;5053048;28;20033;-74
2022/06/16 08:44:28;;;;;;;2.50;1.10;;;22.60;60.70;;;;;;5052861;28;20067;-74
2022/06/16 08:47:26;;;;;;;1.52;0.98;;;22.60;60.70;;;;;;5054040;28;20021;-74
2022/06/16 08:50:06;;;;;;;2.10;1.25;;;22.60;60.70;;;;;;5053340;28;20059;-74
2022/06/16 08:52:53;;;;;;;1.98;1.45;;;22.60;60.70;;;;;;5054029;28;20531;-74
2022/06/16 08:55:30;;;;;;;2.17;1.02;;;22.60;60.60;;;;;;5053968;28;20096;-74
2022/06/16 08:58:10;;;;;;;2.15;1.17;;;22.60;60.70;;;;;;5052652;28;20017;-74
2022/06/16 09:00:56;;;;;;;3.45;1.33;;;22.60;60.70;;;;;;5053194;28;20025;-74
2022/06/16 09:03:49;;;;;;;1.65;1.10;;;22.60;60.70;;;;;;5036555;28;20483;-74
2022/06/16 09:06:18;;;;;;;2.13;1.20;;;22.60;60.60;;;;;;5049675;28;20033;-74
2022/06/16 09:08:55;;;;;;;1.45;1.20;;;22.60;60.60;;;;;;5054004;28;20091;-74
2022/06/16 09:11:33;;;;;;;2.03;1.00;;;22.60;60.60;;;;;;5052630;28;20028;-74
2022/06/16 09:15:10;;;;;;;3.15;1.02;;;22.60;61.00;;;;;;5052310;28;20032;-74
2022/06/16 09:17:41;;;;;;;3.17;0.90;;;22.60;60.60;;;;;;5048690;28;20083;-74
2022/06/16 09:20:43;;;;;;;1.58;1.00;;;22.60;60.60;;;;;;5033487;28;20061;-74
2022/06/16 09:23:32;;;;;;;2.10;0.88;;;22.60;60.60;;;;;;5032221;28;20609;-74
2022/06/16 09:25:58;;;;;;;1.95;0.80;;;22.60;60.50;;;;;;5046148;28;20511;-74
2022/06/16 09:29:05;;;;;;;2.83;0.93;;;22.60;60.60;;;;;;5053214;28;20043;-74
2022/06/16 09:31:44;;;;;;;2.72;1.40;;;22.60;60.60;;;;;;5049216;28;20041;-74
2022/06/16 09:34:13;;;;;;;2.33;1.05;;;22.60;60.50;;;;;;5036376;28;20100;-74
2022/06/16 09:36:41;;;;;;;1.33;0.80;;;22.60;60.50;;;;;;5035748;28;20423;-74
2022/06/16 09:39:16;;;;;;;1.33;1.00;;;22.60;60.50;;;;;;5052041;28;20031;-74
2022/06/16 09:44:34;;;;;;;2.17;1.23;;;22.60;60.50;;;;;;5051853;28;20040;-74
2022/06/16 09:47:04;;;;;;;2.30;1.05;;;22.60;60.50;;;;;;5051762;28;20475;-74
2022/06/16 09:49:37;;;;;;;1.30;0.95;;;22.60;60.50;;;;;;5035189;28;20036;-74
2022/06/16 09:52:25;;;;;;;3.45;0.90;;;22.60;60.50;;;;;;5051783;28;20480;-74
2022/06/16 09:54:57;;;;;;;1.17;0.90;;;22.60;60.50;;;;;;5052950;28;20082;-74
2022/06/16 09:57:32;;;;;;;0.60;0.60;;;22.60;60.50;;;;;;5035518;28;20017;-74
2022/06/16 10:00:14;;;;;;;0.70;0.70;;;22.60;60.50;;;;;;5035957;28;20033;-74
2022/06/16 10:02:48;;;;;;;1.23;0.90;;;22.60;60.50;;;;;;5051538;28;20031;-74
2022/06/16 10:05:44;;;;;;;1.52;1.00;;;22.60;60.50;;;;;;5051527;28;20021;-74
2022/06/16 10:09:08;;;;;;;1.92;1.10;;;22.60;60.50;;;;;;5057236;28;20094;-74
2022/06/16 10:11:47;;;;;;;0.80;0.60;;;22.60;60.30;;;;;;5010383;28;20072;-74
2022/06/16 10:14:12;;;;;;;2.45;0.95;;;22.60;60.40;;;;;;5010743;28;20018;-74
2022/06/16 10:16:48;;;;;;;1.33;0.90;;;22.60;60.40;;;;;;5010738;28;20475;-74
2022/06/16 10:19:14;;;;;;;1.25;0.90;;;22.60;61.50;;;;;;4994098;28;20042;-74
2022/06/16 10:21:40;;;;;;;1.67;0.90;;;22.60;60.50;;;;;;5010611;28;20026;-74
2022/06/16 10:24:06;;;;;;;0.65;0.60;;;22.60;60.50;;;;;;4994379;28;20088;-74
2022/06/16 10:26:31;;;;;;;0.63;0.63;;;22.60;60.50;;;;;;4994026;28;20074;-74
2022/06/16 10:29:00;;;;;;;0.65;0.65;;;22.60;60.40;;;;;;5010559;28;20052;-74
2022/06/16 10:31:45;;;;;;;1.27;0.90;;;22.60;60.50;;;;;;5010405;28;20052;-74
2022/06/16 10:34:30;;;;;;;1.05;0.70;;;22.60;60.40;;;;;;5010619;28;20097;-74
2022/06/16 10:37:05;;;;;;;1.75;0.82;;;22.60;60.40;;;;;;5010655;28;20105;-74
2022/06/16 10:39:40;;;;;;;2.13;0.75;;;22.60;60.50;;;;;;5010361;28;20038;-74
2022/06/16 10:42:20;;;;;;;1.35;0.65;;;22.60;60.40;;;;;;5010659;28;20080;-74
2022/06/16 10:44:56;;;;;;;0.85;0.80;;;22.70;60.40;;;;;;5016330;28;20051;-74
2022/06/16 10:47:48;;;;;;;1.10;0.70;;;22.70;60.30;;;;;;5015684;28;20395;-74
2022/06/16 10:50:28;;;;;;;1.42;0.63;;;22.60;60.20;;;;;;5031745;28;20411;-74
2022/06/16 10:52:59;;;;;;;1.25;0.80;;;22.60;60.20;;;;;;5015845;28;20025;-74
2022/06/16 10:55:29;;;;;;;0.60;0.60;;;22.60;60.20;;;;;;5032036;28;20076;-74
2022/06/16 10:58:05;;;;;;;0.75;0.70;;;22.70;60.30;;;;;;5015382;28;20025;-74
2022/06/16 11:00:32;;;;;;;0.43;0.43;;;22.70;60.30;;;;;;5030704;28;20022;-74
2022/06/16 11:03:17;;;;;;;1.13;0.80;;;22.60;60.20;;;;;;5014800;28;20025;-74
2022/06/16 11:05:52;;;;;;;0.82;0.60;;;22.70;60.20;;;;;;5031087;28;20071;-74
2022/06/16 11:08:18;;;;;;;1.10;0.70;;;22.70;60.20;;;;;;5031834;28;20187;-74
2022/06/16 11:10:55;;;;;;;0.77;0.75;;;22.70;60.20;;;;;;5014679;28;20025;-74
2022/06/16 11:13:27;;;;;;;1.05;0.80;;;22.70;60.00;;;;;;5030863;28;20208;-74
2022/06/16 11:15:53;;;;;;;0.87;0.50;;;22.70;60.00;;;;;;5015089;28;20025;-74
2022/06/16 11:18:20;;;;;;;2.33;0.68;;;22.70;60.10;;;;;;5030523;28;20268;-74
2022/06/16 11:20:48;;;;;;;0.98;0.50;;;22.70;60.00;;;;;;5030807;28;20111;-74
2022/06/16 11:23:34;;;;;;;1.15;0.75;;;22.70;59.90;;;;;;5032830;28;20488;-74
2022/06/16 11:26:18;;;;;;;0.80;0.60;;;22.70;59.80;;;;;;5045492;28;20543;-74
2022/06/16 11:28:48;;;;;;;0.90;0.70;;;22.70;59.80;;;;;;5054582;28;20154;-74
2022/06/16 11:31:25;;;;;;;1.08;0.70;;;22.70;59.70;;;;;;5055454;28;20048;-74
2022/06/16 11:34:18;;;;;;;1.55;0.68;;;22.70;59.80;;;;;;5054517;28;20414;-74
2022/06/16 11:36:49;;;;;;;2.35;0.50;;;22.70;59.70;;;;;;5051626;28;20108;-74
2022/06/16 11:39:42;;;;;;;0.70;0.53;;;22.70;59.50;;;;;;5055349;28;20025;-74
2022/06/16 11:42:25;;;;;;;0.93;0.52;;;22.70;59.60;;;;;;5055381;28;20067;-74
2022/06/16 11:44:57;;;;;;;0.73;0.60;;;22.70;59.50;;;;;;5053734;28;20068;-74
2022/06/16 11:47:22;;;;;;;;;;;22.70;59.40;;;;;;5054452;28;20028;-74
2022/06/16 11:49:54;;;;;;;1.40;0.60;;;22.70;59.40;;;;;;5055283;28;19921;-74
2022/06/16 11:52:40;;;;;;;0.93;0.60;;;22.70;59.40;;;;;;5037779;28;20016;-74
2022/06/16 11:55:15;;;;;;;0.93;0.70;;;22.70;59.40;;;;;;5054060;28;20009;-74
2022/06/16 11:57:48;;;;;;;1.05;0.63;;;22.70;59.30;;;;;;5055056;28;20100;-74
2022/06/16 12:00:21;;;;;;;0.50;0.50;;;22.70;59.30;;;;;;5053817;28;20097;-74
2022/06/16 12:03:18;;;;;;;0.50;0.50;;;22.70;59.20;;;;;;5053872;28;20025;-74
2022/06/16 12:06:01;;;;;;;0.63;0.63;;;22.70;59.20;;;;;;5053722;28;20031;-74
2022/06/16 12:08:39;;;;;;;0.90;0.55;;;22.70;59.20;;;;;;5054780;28;20029;-74
2022/06/16 12:11:11;;;;;;;0.68;0.50;;;22.70;59.20;;;;;;5038203;28;20024;-74
2022/06/16 12:13:37;;;;;;;;;;;22.70;59.30;;;;;;5037948;28;20025;-74
2022/06/16 12:16:22;;;;;;;0.50;0.47;;;22.70;59.20;;;;;;5054833;28;19912;-74
2022/06/16 12:18:51;;;;;;;0.90;0.60;;;22.70;59.20;;;;;;5021886;28;20021;-74
2022/06/16 12:21:34;;;;;;;0.68;0.63;;;22.70;59.20;;;;;;5033453;28;20025;-74
2022/06/16 12:24:26;;;;;;;0.57;0.57;;;22.70;59.20;;;;;;5033680;28;20025;-74
2022/06/16 12:27:19;;;;;;;0.60;0.50;;;22.70;59.10;;;;;;5052033;28;20041;-74
2022/06/16 12:30:06;;;;;;;0.98;0.60;;;22.70;59.10;;;;;;5053240;28;20036;-74
2022/06/16 12:32:41;;;;;;;0.95;0.77;;;22.70;59.10;;;;;;5054345;28;20021;-74
2022/06/16 12:35:13;;;;;;;0.73;0.45;;;22.80;59.30;;;;;;5054301;28;20024;-74
2022/06/16 12:37:42;;;;;;;0.50;0.47;;;22.80;59.30;;;;;;5053275;28;20045;-74
2022/06/16 12:40:27;;;;;;;0.75;0.60;;;22.80;59.30;;;;;;5037076;28;20082;-74
2022/06/16 12:43:10;;;;;;;1.10;0.68;;;22.80;59.30;;;;;;5036665;28;20086;-74
2022/06/16 12:45:38;;;;;;;0.50;0.50;;;22.80;59.50;;;;;;5036993;28;20085;-74
2022/06/16 12:48:23;;;;;;;0.47;0.40;;;22.80;59.40;;;;;;5053261;28;20036;-74
2022/06/16 12:50:53;;;;;;;0.80;0.52;;;22.80;59.40;;;;;;5037043;28;20037;-74
2022/06/16 12:53:23;;;;;;;0.60;0.30;;;22.80;59.40;;;;;;5036655;28;20013;-74
2022/06/16 12:56:08;;;;;;;0.50;0.50;;;22.80;59.40;;;;;;5052452;28;20060;-75
2022/06/16 12:58:52;;;;;;;0.47;0.40;;;22.80;59.40;;;;;;5037741;28;20023;-74
2022/06/16 13:01:17;;;;;;;1.65;0.50;;;22.80;59.40;;;;;;5036411;28;20029;-74
2022/06/16 13:04:02;;;;;;;0.95;0.60;;;22.80;59.40;;;;;;5036166;28;20051;-74
2022/06/16 13:06:28;;;;;;;0.40;0.40;;;22.80;59.50;;;;;;5052343;28;20029;-74
2022/06/16 13:08:56;;;;;;;0.60;0.50;;;22.80;59.50;;;;;;5036274;28;20033;-74
2022/06/16 13:11:30;;;;;;;0.43;0.43;;;22.80;59.50;;;;;;5036025;28;20095;-74
2022/06/16 13:14:06;;;;;;;0.75;0.50;;;22.80;59.50;;;;;;5037191;28;20014;-74
2022/06/16 13:16:33;;;;;;;0.63;0.40;;;22.90;59.50;;;;;;5053377;28;20025;-74
2022/06/16 13:19:04;;;;;;;0.52;0.50;;;22.80;59.50;;;;;;5017350;28;20029;-74
2022/06/16 13:21:32;;;;;;;1.27;0.65;;;22.80;59.50;;;;;;5032372;28;20030;-74
2022/06/16 13:24:11;;;;;;;0.60;0.60;;;22.90;59.50;;;;;;5032463;28;20480;-74
2022/06/16 13:26:42;;;;;;;0.40;0.40;;;22.90;59.50;;;;;;5048104;28;20609;-74
2022/06/16 13:29:18;;;;;;;0.43;0.43;;;22.90;59.40;;;;;;5035569;28;20029;-74
2022/06/16 13:31:55;;;;;;;0.75;0.63;;;22.90;59.40;;;;;;5035722;28;20076;-74
2022/06/16 13:34:41;;;;;;;0.60;0.40;;;22.90;59.50;;;;;;5053107;28;20029;-74